createdAt,value
2017-10-19T00:02:06.342Z,16.63
2017-10-19T00:04:34.767Z,17.60
2017-10-19T00:07:03.234Z,19.70
2017-10-19T00:09:31.585Z,18.53
2017-10-19T00:12:00.436Z,19.70
2017-10-19T00:14:28.879Z,18.40
2017-10-19T00:16:57.233Z,18.70
2017-10-19T00:19:25.600Z,18.00
2017-10-19T00:21:54.005Z,17.60
2017-10-19T00:24:22.349Z,19.80
2017-10-19T00:26:50.715Z,17.37
2017-10-19T00:29:19.088Z,18.17
2017-10-19T00:31:47.475Z,15.47
2017-10-19T00:34:16.038Z,16.08
2017-10-19T00:36:44.514Z,17.10
2017-10-19T00:39:12.850Z,16.50
2017-10-19T00:41:41.285Z,16.93
2017-10-19T00:44:09.661Z,14.70
2017-10-19T00:46:38.039Z,14.30
2017-10-19T00:49:06.457Z,13.03
2017-10-19T00:51:35.814Z,15.07
2017-10-19T00:54:04.186Z,14.03
2017-10-19T00:56:32.575Z,14.00
2017-10-19T00:59:01.050Z,14.60
2017-10-19T01:01:29.633Z,14.33
2017-10-19T01:03:58.017Z,13.73
2017-10-19T01:06:26.538Z,10.63
2017-10-19T01:08:54.999Z,12.73
2017-10-19T01:11:24.446Z,12.27
2017-10-19T01:13:52.897Z,13.00
2017-10-19T01:16:21.320Z,12.20
2017-10-19T01:18:49.881Z,12.57
2017-10-19T01:21:18.216Z,12.37
2017-10-19T01:23:46.593Z,11.70
2017-10-19T01:26:15.117Z,11.60
2017-10-19T01:28:43.668Z,11.20
2017-10-19T01:31:12.080Z,11.67
2017-10-19T01:33:40.449Z,11.30
2017-10-19T01:36:09.045Z,12.03
2017-10-19T01:38:37.809Z,12.37
2017-10-19T01:41:06.402Z,12.73
2017-10-19T01:43:34.856Z,12.70
2017-10-19T01:46:03.479Z,12.73
2017-10-19T01:48:32.086Z,11.60
2017-10-19T01:51:01.242Z,11.60
2017-10-19T01:53:29.638Z,11.57
2017-10-19T01:55:58.150Z,12.43
2017-10-19T01:58:26.564Z,11.73
2017-10-19T02:00:54.945Z,12.57
2017-10-19T02:03:23.387Z,12.57
2017-10-19T02:05:51.798Z,11.47
2017-10-19T02:08:20.250Z,10.90
2017-10-19T02:10:48.722Z,10.40
2017-10-19T02:13:17.145Z,10.00
2017-10-19T02:15:45.845Z,11.73
2017-10-19T02:18:14.251Z,9.30
2017-10-19T02:20:42.971Z,11.53
2017-10-19T02:23:11.509Z,9.50
2017-10-19T02:25:39.904Z,9.00
2017-10-19T02:28:08.521Z,9.40
2017-10-19T02:30:37.023Z,7.80
2017-10-19T02:33:05.455Z,8.33
2017-10-19T02:35:33.957Z,7.93
2017-10-19T02:38:02.564Z,8.83
2017-10-19T02:40:31.024Z,8.00
2017-10-19T02:43:00.637Z,7.63
2017-10-19T02:45:29.186Z,8.00
2017-10-19T02:47:57.602Z,7.20
2017-10-19T02:50:26.017Z,8.20
2017-10-19T02:52:54.634Z,7.33
2017-10-19T02:55:23.146Z,7.30
2017-10-19T02:57:51.553Z,6.80
2017-10-19T03:00:19.938Z,8.70
2017-10-19T03:02:48.410Z,8.10
2017-10-19T03:05:16.918Z,7.67
2017-10-19T03:07:45.417Z,7.93
2017-10-19T03:10:13.750Z,8.40
2017-10-19T03:12:42.101Z,7.87
2017-10-19T03:15:10.449Z,5.60
2017-10-19T03:17:38.809Z,6.83
2017-10-19T03:20:07.177Z,7.40
2017-10-19T03:22:35.576Z,7.10
2017-10-19T03:25:03.961Z,6.80
2017-10-19T03:27:32.399Z,7.60
2017-10-19T03:30:00.807Z,6.53
2017-10-19T03:32:29.197Z,6.90
2017-10-19T03:34:57.547Z,7.40
2017-10-19T03:37:25.935Z,7.20
2017-10-19T03:39:54.329Z,6.60
2017-10-19T03:42:22.709Z,7.00
2017-10-19T03:44:51.144Z,7.20
2017-10-19T03:47:19.581Z,7.37
2017-10-19T03:49:47.912Z,6.57
2017-10-19T03:52:16.403Z,6.23
2017-10-19T03:54:44.720Z,7.40
2017-10-19T03:57:13.119Z,6.63
2017-10-19T03:59:41.503Z,6.87
2017-10-19T04:02:09.831Z,7.77
2017-10-19T04:04:38.192Z,7.03
2017-10-19T04:07:06.560Z,6.30
2017-10-19T04:09:34.985Z,6.60
2017-10-19T04:12:03.345Z,7.30
2017-10-19T04:14:31.863Z,7.20
2017-10-19T04:17:00.574Z,7.00
2017-10-19T04:19:29.025Z,6.80
2017-10-19T04:21:57.425Z,7.50
2017-10-19T04:24:25.892Z,7.77
2017-10-19T04:26:54.275Z,7.43
2017-10-19T04:29:22.687Z,6.93
2017-10-19T04:31:51.122Z,6.30
2017-10-19T04:34:19.615Z,7.17
2017-10-19T04:36:48.023Z,6.43
2017-10-19T04:39:16.557Z,6.73
2017-10-19T04:41:44.937Z,6.30
2017-10-19T04:44:13.312Z,5.27
2017-10-19T04:46:41.802Z,5.60
2017-10-19T04:49:10.226Z,5.23
2017-10-19T04:51:38.625Z,6.60
2017-10-19T04:54:07.159Z,6.23
2017-10-19T04:56:35.586Z,6.67
2017-10-19T04:59:04.074Z,7.20
2017-10-19T05:01:32.562Z,6.40
2017-10-19T05:04:00.926Z,6.27
2017-10-19T05:06:29.354Z,6.83
2017-10-19T05:08:57.720Z,6.60
2017-10-19T05:11:26.129Z,6.73
2017-10-19T05:13:54.596Z,6.10
2017-10-19T05:16:23.111Z,6.33
2017-10-19T05:18:51.561Z,6.43
2017-10-19T05:21:20.114Z,6.03
2017-10-19T05:23:48.709Z,7.10
2017-10-19T05:26:19.358Z,6.10
2017-10-19T05:28:47.825Z,6.90
2017-10-19T05:31:16.304Z,7.50
2017-10-19T05:33:44.702Z,7.27
2017-10-19T05:36:13.237Z,6.80
2017-10-19T05:38:41.622Z,6.50
2017-10-19T05:41:10.018Z,7.43
2017-10-19T05:43:40.640Z,7.30
2017-10-19T05:46:10.268Z,6.57
2017-10-19T05:48:38.670Z,5.90
2017-10-19T05:51:07.789Z,6.53
2017-10-19T05:53:36.522Z,6.10
2017-10-19T05:56:05.007Z,7.37
2017-10-19T05:58:33.454Z,7.10
2017-10-19T06:01:01.907Z,6.23
2017-10-19T06:03:31.163Z,7.20
2017-10-19T06:06:00.377Z,7.37
2017-10-19T06:08:29.056Z,6.13
2017-10-19T06:10:57.570Z,5.37
2017-10-19T06:13:26.046Z,6.93
2017-10-19T06:15:54.743Z,5.87
2017-10-19T06:18:23.304Z,6.27
2017-10-19T06:20:51.956Z,6.20
2017-10-19T06:23:20.660Z,7.30
2017-10-19T06:25:49.300Z,6.20
2017-10-19T06:28:18.447Z,7.63
2017-10-19T06:30:47.039Z,6.40
2017-10-19T06:33:15.918Z,6.63
2017-10-19T06:35:44.333Z,6.97
2017-10-19T06:38:13.004Z,5.23
2017-10-19T06:40:41.762Z,7.50
2017-10-19T06:45:42.893Z,6.30
2017-10-19T06:48:11.498Z,5.87
2017-10-19T06:50:40.035Z,6.63
2017-10-19T06:53:10.106Z,7.20
2017-10-19T06:58:11.355Z,6.47
2017-10-19T07:00:39.960Z,6.53
2017-10-19T07:03:09.129Z,6.97
2017-10-19T07:05:37.678Z,6.80
2017-10-19T07:10:39.484Z,5.60
2017-10-19T07:13:08.908Z,8.00
2017-10-19T07:15:40.821Z,6.90
2017-10-19T07:25:49.680Z,5.90
2017-10-19T07:30:50.914Z,6.17
2017-10-19T07:33:19.752Z,6.23
2017-10-19T07:35:48.794Z,6.60
2017-10-19T07:38:17.411Z,7.93
2017-10-19T07:56:05.081Z,7.70
2017-10-19T07:58:33.859Z,6.00
2017-10-19T08:01:04.542Z,6.23
2017-10-19T08:06:07.499Z,8.87
2017-10-19T08:13:42.695Z,7.80
2017-10-19T08:16:11.207Z,5.17
2017-10-19T08:18:39.575Z,6.10
2017-10-19T08:26:14.207Z,5.80
2017-10-19T08:33:48.168Z,6.23
2017-10-19T08:36:17.061Z,5.87
2017-10-19T08:43:53.600Z,5.80
2017-10-19T08:46:22.354Z,6.63
2017-10-19T08:51:25.408Z,6.90
2017-10-19T08:53:54.247Z,6.17
2017-10-19T08:56:23.352Z,7.17
2017-10-19T08:58:53.851Z,8.47
2017-10-19T09:06:28.453Z,7.60
2017-10-19T09:09:00.792Z,5.17
2017-10-19T09:11:31.185Z,5.70
2017-10-19T09:13:59.675Z,6.00
2017-10-19T09:16:28.173Z,5.80
2017-10-19T09:21:33.438Z,5.80
2017-10-19T09:40:02.895Z,6.20
2017-10-19T09:47:41.141Z,5.10
2017-10-19T09:50:10.560Z,6.33
2017-10-19T10:00:20.418Z,5.43
2017-10-19T10:07:55.157Z,6.40
2017-10-19T10:39:49.568Z,6.53
2017-10-19T10:42:18.052Z,4.50
2017-10-19T10:52:27.509Z,5.07
2017-10-19T11:05:20.886Z,5.10
2017-10-19T11:12:58.769Z,4.37
2017-10-19T11:20:34.311Z,4.70
2017-10-19T11:30:44.567Z,5.03
2017-10-19T11:43:30.310Z,4.50
2017-10-19T11:51:04.868Z,4.50
2017-10-19T11:53:33.545Z,5.63
2017-10-19T11:58:37.729Z,4.63
2017-10-19T12:06:23.688Z,3.97
2017-10-19T12:08:52.482Z,4.07
2017-10-19T12:13:55.247Z,4.50
2017-10-19T12:16:24.274Z,3.80
2017-10-19T12:18:52.988Z,5.27
2017-10-19T12:21:21.647Z,5.20
2017-10-19T12:23:50.182Z,4.03
2017-10-19T12:26:18.609Z,5.13
2017-10-19T12:28:47.144Z,4.27
2017-10-19T12:31:19.388Z,4.73
2017-10-19T12:33:48.929Z,3.70
2017-10-19T12:36:19.368Z,4.50
2017-10-19T12:38:48.083Z,4.00
2017-10-19T12:41:17.034Z,4.30
2017-10-19T12:43:45.527Z,4.23
2017-10-19T12:46:16.024Z,4.30
2017-10-19T12:48:51.840Z,4.27
2017-10-19T12:51:23.283Z,3.53
2017-10-19T12:56:25.539Z,4.60
2017-10-19T13:01:27.345Z,4.27
2017-10-19T13:03:57.616Z,3.73
2017-10-19T13:06:26.345Z,4.37
2017-10-19T13:08:54.942Z,4.60
2017-10-19T13:11:24.136Z,4.37
2017-10-19T13:16:25.237Z,3.40
2017-10-19T13:18:53.926Z,4.47
2017-10-19T13:26:28.602Z,5.60
2017-10-19T13:28:57.389Z,4.80
2017-10-19T13:36:31.372Z,4.50
2017-10-19T13:44:05.976Z,5.87
2017-10-19T13:46:34.455Z,5.40
2017-10-19T13:49:03.519Z,4.97
2017-10-19T13:51:32.238Z,6.33
2017-10-19T13:54:04.343Z,5.40
2017-10-19T13:59:05.668Z,5.40
2017-10-19T14:04:08.197Z,7.37
2017-10-19T14:11:41.706Z,6.50
2017-10-19T14:16:43.017Z,6.67
2017-10-19T14:19:11.519Z,5.83
2017-10-19T14:24:17.295Z,5.63
2017-10-19T14:39:33.588Z,5.60
2017-10-19T14:42:02.505Z,6.80
2017-10-19T14:44:31.762Z,7.73
2017-10-19T14:52:06.457Z,6.43
2017-10-19T14:54:35.015Z,5.77
2017-10-19T15:07:19.671Z,7.47
2017-10-19T15:12:21.474Z,7.60
2017-10-19T15:14:50.644Z,7.80
2017-10-19T15:17:19.154Z,7.10
2017-10-19T15:19:47.784Z,7.27
2017-10-19T15:22:16.771Z,8.33
2017-10-19T15:32:27.011Z,8.90
2017-10-19T15:34:55.673Z,9.00
2017-10-19T15:37:24.216Z,11.43
2017-10-19T15:39:52.923Z,9.87
2017-10-19T15:42:21.371Z,10.27
2017-10-19T15:44:49.804Z,11.23
2017-10-19T15:47:18.423Z,9.57
2017-10-19T15:52:21.016Z,11.30
2017-10-19T15:57:23.157Z,12.53
2017-10-19T15:59:52.529Z,11.37
2017-10-19T16:02:22.762Z,13.20
2017-10-19T16:04:51.333Z,12.17
2017-10-19T16:09:53.201Z,12.83
2017-10-19T16:17:27.709Z,13.70
2017-10-19T16:22:32.495Z,13.13
2017-10-19T16:25:01.309Z,14.10
2017-10-19T16:40:15.417Z,15.83
2017-10-19T16:42:44.767Z,16.10
2017-10-19T16:55:33.526Z,15.40
2017-10-19T17:16:02.246Z,14.50
2017-10-19T17:21:07.715Z,15.73
2017-10-19T17:23:36.327Z,15.00
2017-10-19T17:26:05.050Z,13.97
2017-10-19T17:28:33.580Z,15.30
2017-10-19T17:31:02.594Z,13.80
2017-10-19T17:33:32.504Z,15.07
2017-10-19T17:36:01.976Z,14.77
2017-10-19T17:41:03.213Z,14.17
2017-10-19T17:43:31.885Z,13.30
2017-10-19T17:46:04.321Z,12.60
2017-10-19T17:53:38.413Z,14.67
2017-10-19T17:56:07.019Z,14.17
2017-10-19T17:58:35.729Z,14.67
2017-10-19T18:01:04.591Z,13.47
2017-10-19T18:03:33.098Z,13.80
2017-10-19T18:06:03.293Z,13.80
2017-10-19T18:08:31.894Z,13.77
2017-10-19T18:11:00.743Z,11.40
2017-10-19T18:13:29.498Z,11.87
2017-10-19T18:15:58.026Z,9.50
2017-10-19T18:18:26.453Z,11.20
2017-10-19T18:20:55.527Z,11.63
2017-10-19T18:23:25.120Z,12.77
2017-10-19T18:25:54.015Z,11.83
2017-10-19T18:28:22.577Z,11.27
2017-10-19T18:30:51.076Z,11.73
2017-10-19T18:33:19.478Z,12.90
2017-10-19T18:35:48.466Z,11.50
2017-10-19T18:38:17.934Z,14.07
2017-10-19T18:40:47.754Z,13.13
2017-10-19T18:43:20.481Z,12.57
2017-10-19T18:45:49.136Z,12.17
2017-10-19T18:48:17.619Z,12.30
2017-10-19T18:50:47.700Z,11.60
2017-10-19T18:53:16.253Z,13.63
2017-10-19T18:58:22.617Z,13.93
2017-10-19T19:00:51.538Z,12.73
2017-10-19T19:03:22.317Z,13.40
2017-10-19T19:05:51.302Z,15.93
2017-10-19T19:08:19.784Z,14.87
2017-10-19T19:10:48.518Z,14.40
2017-10-19T19:13:18.334Z,15.20
2017-10-19T19:15:47.155Z,14.13
2017-10-19T19:18:16.058Z,14.57
2017-10-19T19:20:44.521Z,15.40
2017-10-19T19:25:47.197Z,16.80
2017-10-19T19:28:15.872Z,18.77
2017-10-19T19:30:44.450Z,17.43
2017-10-19T19:33:13.643Z,17.00
2017-10-19T19:38:15.593Z,17.30
2017-10-19T19:40:44.942Z,17.43
2017-10-19T19:43:16.868Z,16.73
2017-10-19T19:45:45.412Z,16.10
2017-10-19T19:48:13.859Z,17.50
2017-10-19T19:50:42.378Z,16.40
2017-10-19T19:53:12.191Z,18.27
2017-10-19T19:55:41.846Z,17.50
2017-10-19T19:58:10.319Z,18.23
2017-10-19T20:00:39.396Z,17.70
2017-10-19T20:03:09.244Z,18.43
2017-10-19T20:05:38.010Z,17.90
2017-10-19T20:08:07.643Z,16.70
2017-10-19T20:10:37.356Z,17.50
2017-10-19T20:15:39.063Z,18.03
2017-10-19T20:20:44.242Z,18.17
2017-10-19T20:23:13.307Z,19.57
2017-10-19T20:25:41.757Z,17.87
2017-10-19T20:28:10.233Z,18.20
2017-10-19T20:30:38.674Z,20.17
2017-10-19T20:33:07.299Z,20.17
2017-10-19T20:35:35.943Z,20.33
2017-10-19T20:38:04.957Z,22.73
2017-10-19T20:40:33.583Z,20.53
2017-10-19T20:43:02.084Z,21.33
2017-10-19T20:45:30.840Z,20.00
2017-10-19T20:47:59.381Z,20.90
2017-10-19T20:50:27.885Z,20.80
2017-10-19T20:52:56.220Z,21.20
2017-10-19T20:55:24.765Z,24.00
2017-10-19T20:57:53.280Z,23.00
2017-10-19T21:00:21.660Z,20.90
2017-10-19T21:02:50.224Z,20.60
2017-10-19T21:05:18.943Z,24.33
2017-10-19T21:07:47.437Z,22.70
2017-10-19T21:10:15.876Z,21.93
2017-10-19T21:12:44.292Z,23.23
2017-10-19T21:15:12.709Z,21.43
2017-10-19T21:17:41.266Z,20.50
2017-10-19T21:20:09.916Z,21.17
2017-10-19T21:22:38.440Z,22.40
2017-10-19T21:25:06.873Z,22.30
2017-10-19T21:27:36.384Z,21.97
2017-10-19T21:30:07.478Z,23.50
2017-10-19T21:32:36.875Z,24.43
2017-10-19T21:35:05.400Z,23.40
2017-10-19T21:37:33.850Z,24.77
2017-10-19T21:40:02.340Z,23.87
2017-10-19T21:42:30.847Z,25.00
2017-10-19T21:44:59.334Z,24.40
2017-10-19T21:47:33.859Z,27.47
2017-10-19T21:50:03.901Z,25.53
2017-10-19T21:52:32.713Z,24.23
2017-10-19T21:55:02.252Z,26.80
2017-10-19T21:57:31.061Z,25.17
2017-10-19T21:59:59.681Z,24.10
2017-10-19T22:02:30.243Z,24.27
2017-10-19T22:04:59.006Z,25.07
2017-10-19T22:07:27.595Z,25.10
2017-10-19T22:10:00.227Z,26.20
2017-10-19T22:12:29.253Z,28.10
2017-10-19T22:14:58.672Z,27.50
2017-10-19T22:17:27.576Z,26.20
2017-10-19T22:19:57.314Z,26.40
2017-10-19T22:22:26.081Z,26.87
2017-10-19T22:24:54.792Z,27.27
2017-10-19T22:27:25.292Z,25.67
2017-10-19T22:29:54.149Z,27.93
2017-10-19T22:32:26.080Z,25.80
2017-10-19T22:34:56.340Z,26.27
2017-10-19T22:37:30.070Z,25.40
2017-10-19T22:39:59.434Z,25.53
2017-10-19T22:42:31.748Z,27.47
2017-10-19T22:45:04.091Z,25.20
2017-10-19T22:47:33.307Z,28.23
2017-10-19T22:50:02.511Z,25.83
2017-10-19T22:52:31.998Z,25.27
2017-10-19T22:55:01.392Z,26.90
2017-10-19T22:57:33.696Z,28.03
2017-10-19T23:00:03.181Z,27.10
2017-10-19T23:02:31.954Z,29.20
2017-10-19T23:05:00.436Z,28.87
2017-10-19T23:07:29.470Z,30.00
2017-10-19T23:09:58.596Z,28.17
2017-10-19T23:12:27.099Z,31.87
2017-10-19T23:14:55.545Z,29.23
2017-10-19T23:17:32.770Z,29.70
2017-10-19T23:20:02.457Z,31.10
2017-10-19T23:22:30.966Z,32.33
2017-10-19T23:25:01.483Z,31.27
2017-10-19T23:27:30.778Z,29.60
2017-10-19T23:29:59.314Z,32.00
2017-10-19T23:32:28.075Z,31.17
2017-10-19T23:34:56.631Z,32.10
2017-10-19T23:37:25.757Z,31.37
2017-10-19T23:39:55.047Z,31.03
2017-10-19T23:42:23.725Z,35.40
2017-10-19T23:44:52.261Z,35.60
2017-10-19T23:47:20.938Z,34.80
2017-10-19T23:49:49.607Z,32.83
2017-10-19T23:52:18.037Z,29.30
2017-10-19T23:54:46.997Z,28.20
2017-10-19T23:57:15.735Z,31.60
2017-10-19T23:59:44.429Z,30.67
